createdAt,value
2023-04-08T00:00:39.443Z,100.00
2023-04-08T00:05:43.059Z,100.00
2023-04-08T00:10:46.274Z,100.00
2023-04-08T00:15:54.022Z,100.00
2023-04-08T00:20:57.564Z,100.00
2023-04-08T00:26:00.563Z,100.00
2023-04-08T00:31:05.106Z,100.00
2023-04-08T00:36:08.436Z,100.00
2023-04-08T00:41:11.754Z,100.00
2023-04-08T00:46:16.740Z,100.00
2023-04-08T00:51:20.320Z,100.00
2023-04-08T00:56:24.283Z,100.00
2023-04-08T01:01:35.751Z,100.00
2023-04-08T01:06:43.741Z,100.00
2023-04-08T01:11:51.947Z,100.00
2023-04-08T01:16:58.126Z,100.00
2023-04-08T01:22:10.738Z,100.00
2023-04-08T01:27:16.091Z,100.00
2023-04-08T01:32:19.903Z,100.00
2023-04-08T01:37:24.777Z,100.00
2023-04-08T01:42:33.740Z,100.00
2023-04-08T01:47:38.219Z,100.00
2023-04-08T01:52:42.961Z,100.00
2023-04-08T01:57:52.046Z,100.00
2023-04-08T02:02:56.667Z,100.00
2023-04-08T02:08:00.013Z,100.00
2023-04-08T02:13:05.503Z,100.00
2023-04-08T02:18:14.679Z,100.00
2023-04-08T02:23:21.622Z,100.00
2023-04-08T02:28:28.715Z,100.00
2023-04-08T02:33:32.102Z,100.00
2023-04-08T02:38:35.498Z,100.00
2023-04-08T02:43:40.227Z,100.00
2023-04-08T02:48:43.264Z,100.00
2023-04-08T02:53:46.335Z,100.00
2023-04-08T02:58:52.411Z,100.00
2023-04-08T03:03:55.832Z,100.00
2023-04-08T03:08:59.279Z,100.00
2023-04-08T03:14:03.789Z,100.00
2023-04-08T03:19:06.839Z,100.00
2023-04-08T03:24:09.808Z,100.00
2023-04-08T03:29:14.168Z,100.00
2023-04-08T03:34:17.360Z,100.00
2023-04-08T03:39:21.073Z,100.00
2023-04-08T03:44:25.948Z,100.00
2023-04-08T03:49:29.057Z,100.00
2023-04-08T03:54:32.001Z,100.00
2023-04-08T03:59:36.925Z,100.00
2023-04-08T04:04:39.973Z,100.00
2023-04-08T04:09:43.240Z,100.00
2023-04-08T04:14:47.814Z,100.00
2023-04-08T04:19:52.812Z,100.00
2023-04-08T04:24:55.743Z,100.00
2023-04-08T04:30:01.612Z,100.00
2023-04-08T04:35:04.976Z,100.00
2023-04-08T04:40:09.080Z,100.00
2023-04-08T04:45:13.748Z,100.00
2023-04-08T04:50:17.111Z,100.00
2023-04-08T04:55:20.048Z,100.00
2023-04-08T05:00:24.912Z,100.00
2023-04-08T05:05:28.081Z,100.00
2023-04-08T05:10:31.179Z,100.00
2023-04-08T05:15:36.108Z,100.00
2023-04-08T05:20:39.230Z,100.00
2023-04-08T05:25:42.479Z,100.00
2023-04-08T05:30:52.093Z,100.00
2023-04-08T05:35:55.367Z,100.00
2023-04-08T05:40:58.524Z,100.00
2023-04-08T05:46:07.754Z,100.00
2023-04-08T05:51:15.689Z,100.00
2023-04-08T05:56:18.686Z,100.00
2023-04-08T06:01:23.212Z,100.00
2023-04-08T06:06:26.565Z,100.00
2023-04-08T06:11:29.649Z,100.00
2023-04-08T06:16:34.193Z,100.00
2023-04-08T06:21:37.550Z,100.00
2023-04-08T06:26:40.953Z,100.00
2023-04-08T06:31:45.843Z,100.00
2023-04-08T06:36:50.358Z,100.00
2023-04-08T06:41:54.832Z,100.00
2023-04-08T06:47:34.978Z,100.00
2023-04-08T06:52:38.093Z,100.00
2023-04-08T06:57:41.094Z,100.00
2023-04-08T07:02:46.393Z,100.00
2023-04-08T07:07:49.793Z,100.00
2023-04-08T07:12:53.381Z,100.00
2023-04-08T07:17:58.988Z,100.00
2023-04-08T07:23:02.121Z,100.00
2023-04-08T07:28:05.385Z,100.00
2023-04-08T07:33:09.784Z,100.00
2023-04-08T07:38:13.559Z,100.00
2023-04-08T07:43:16.711Z,100.00
2023-04-08T07:48:21.119Z,100.00
2023-04-08T07:53:26.454Z,100.00
2023-04-08T07:58:29.589Z,100.00
2023-04-08T08:03:34.393Z,100.00
2023-04-08T08:08:37.627Z,100.00
2023-04-08T08:13:40.644Z,100.00
2023-04-08T08:18:45.091Z,100.00
2023-04-08T08:23:49.049Z,100.00
2023-04-08T08:28:52.508Z,100.00
2023-04-08T08:33:56.888Z,100.00
2023-04-08T08:39:00.092Z,100.00
2023-04-08T08:44:04.296Z,100.00
2023-04-08T08:49:09.214Z,100.00
2023-04-08T08:54:12.925Z,100.00
2023-04-08T08:59:17.646Z,100.00
2023-04-08T09:04:23.170Z,100.00
2023-04-08T09:09:27.382Z,100.00
2023-04-08T09:14:30.751Z,100.00
2023-04-08T09:19:35.289Z,100.00
2023-04-08T09:24:39.352Z,100.00
2023-04-08T09:29:42.447Z,100.00
2023-04-08T09:34:46.998Z,100.00
2023-04-08T09:39:50.878Z,100.00
2023-04-08T09:44:56.070Z,100.00
2023-04-08T09:50:09.116Z,100.00
2023-04-08T09:55:14.494Z,100.00
2023-04-08T10:00:19.310Z,100.00
2023-04-08T10:05:26.037Z,100.00
2023-04-08T10:10:29.662Z,100.00
2023-04-08T10:15:34.625Z,99.52
2023-04-08T10:20:46.024Z,100.00
2023-04-08T10:25:52.334Z,100.00
2023-04-08T10:30:56.679Z,100.00
2023-04-08T10:36:11.431Z,100.00
2023-04-08T10:41:21.645Z,100.00
2023-04-08T10:46:25.742Z,100.00
2023-04-08T10:51:35.050Z,100.00
2023-04-08T10:56:44.774Z,100.00
2023-04-08T11:01:50.192Z,100.00
2023-04-08T11:06:54.942Z,98.59
2023-04-08T11:11:58.187Z,97.91
2023-04-08T11:17:01.878Z,96.85
2023-04-08T11:22:07.764Z,93.18
2023-04-08T11:27:11.298Z,97.89
2023-04-08T11:32:14.702Z,95.16
2023-04-08T11:37:27.922Z,98.28
2023-04-08T11:42:34.440Z,94.28
2023-04-08T11:47:38.003Z,96.77
2023-04-08T11:52:57.081Z,84.39
2023-04-08T11:58:04.837Z,96.25
2023-04-08T12:03:08.579Z,91.54
2023-04-08T12:08:13.232Z,84.70
2023-04-08T12:13:16.238Z,86.63
2023-04-08T12:18:19.497Z,88.23
2023-04-08T12:23:23.961Z,81.85
2023-04-08T12:28:27.077Z,82.10
2023-04-08T12:33:30.140Z,73.75
2023-04-08T12:38:34.653Z,81.07
2023-04-08T12:43:39.123Z,77.37
2023-04-08T12:48:42.517Z,77.23
2023-04-08T12:53:46.989Z,66.00
2023-04-08T12:58:50.246Z,75.11
2023-04-08T13:03:53.597Z,91.78
2023-04-08T13:08:58.047Z,59.94
2023-04-08T13:14:01.276Z,58.59
2023-04-08T13:19:04.377Z,61.48
2023-04-08T13:24:08.931Z,70.82
2023-04-08T13:29:12.072Z,58.24
2023-04-08T13:34:15.042Z,75.12
2023-04-08T13:39:19.577Z,50.15
2023-04-08T13:44:22.558Z,54.99
2023-04-08T13:49:26.153Z,61.62
2023-04-08T13:54:31.180Z,51.68
2023-04-08T13:59:34.473Z,52.10
2023-04-08T14:04:37.603Z,69.62
2023-04-08T14:09:42.124Z,65.55
2023-04-08T14:14:45.134Z,61.91
2023-04-08T14:19:48.532Z,56.58
2023-04-08T14:24:53.720Z,66.98
2023-04-08T14:29:56.907Z,59.69
2023-04-08T14:35:00.092Z,55.10
2023-04-08T14:40:05.195Z,61.32
2023-04-08T14:45:11.634Z,65.29
2023-04-08T14:50:15.003Z,74.27
2023-04-08T14:55:22.619Z,63.25
2023-04-08T15:00:26.099Z,56.65
2023-04-08T15:05:29.165Z,66.80
2023-04-08T15:10:33.806Z,70.88
2023-04-08T15:15:37.290Z,61.41
2023-04-08T15:20:40.758Z,62.86
2023-04-08T15:25:45.344Z,61.00
2023-04-08T15:30:48.634Z,69.13
2023-04-08T15:35:52.240Z,76.25
2023-04-08T15:40:56.901Z,75.99
2023-04-08T15:46:00.113Z,60.34
2023-04-08T15:51:08.966Z,62.50
2023-04-08T15:56:16.224Z,74.60
2023-04-08T16:01:20.294Z,52.91
2023-04-08T16:06:23.642Z,58.67
2023-04-08T16:11:34.718Z,57.08
2023-04-08T16:16:43.874Z,56.41
2023-04-08T16:21:47.008Z,55.32
2023-04-08T16:26:51.749Z,55.90
2023-04-08T16:31:55.325Z,56.25
2023-04-08T16:36:58.462Z,54.77
2023-04-08T16:42:02.896Z,58.77
2023-04-08T16:47:06.014Z,63.03
2023-04-08T16:52:09.090Z,65.81
2023-04-08T16:57:13.681Z,62.02
2023-04-08T17:02:16.929Z,61.89
2023-04-08T17:07:20.028Z,67.26
2023-04-08T17:12:25.063Z,65.38
2023-04-08T17:17:28.097Z,67.40
2023-04-08T17:22:31.166Z,68.02
2023-04-08T17:27:35.643Z,72.52
2023-04-08T17:32:39.162Z,69.36
2023-04-08T17:37:42.285Z,71.92
2023-04-08T17:42:47.451Z,73.32
2023-04-08T17:47:51.850Z,70.80
2023-04-08T17:52:55.048Z,72.74
2023-04-08T17:57:59.600Z,73.96
2023-04-08T18:03:02.597Z,77.72
2023-04-08T18:08:05.822Z,82.92
2023-04-08T18:13:11.920Z,83.26
2023-04-08T18:18:19.667Z,83.11
2023-04-08T18:23:23.094Z,78.95
2023-04-08T18:28:28.012Z,81.84
2023-04-08T18:33:31.300Z,81.24
2023-04-08T18:38:36.225Z,81.31
2023-04-08T18:43:41.365Z,80.22
2023-04-08T18:48:44.403Z,81.90
2023-04-08T18:53:47.491Z,82.08
2023-04-08T18:58:54.770Z,82.54
2023-04-08T19:03:58.006Z,82.23
2023-04-08T19:09:01.168Z,81.85
2023-04-08T19:14:07.656Z,82.78
2023-04-08T19:19:11.051Z,83.58
2023-04-08T19:24:14.087Z,83.32
2023-04-08T19:29:23.037Z,83.69
2023-04-08T19:34:26.350Z,84.69
2023-04-08T19:39:29.446Z,85.07
2023-04-08T19:44:34.548Z,85.38
2023-04-08T19:49:38.963Z,85.41
2023-04-08T19:54:43.569Z,85.76
2023-04-08T19:59:49.844Z,85.75
2023-04-08T20:04:52.877Z,85.74
2023-04-08T20:09:55.994Z,87.30
2023-04-08T20:15:00.962Z,89.09
2023-04-08T20:20:05.468Z,91.10
2023-04-08T20:25:08.687Z,93.13
2023-04-08T20:30:14.257Z,95.44
2023-04-08T20:35:17.791Z,96.40
2023-04-08T20:40:21.016Z,99.05
2023-04-08T20:45:26.301Z,98.96
2023-04-08T20:50:30.200Z,100.00
2023-04-08T20:55:33.563Z,100.00
2023-04-08T21:00:38.148Z,100.00
2023-04-08T21:05:42.095Z,100.00
2023-04-08T21:10:45.445Z,100.00
2023-04-08T21:15:50.162Z,100.00
2023-04-08T21:20:53.395Z,100.00
2023-04-08T21:25:56.658Z,100.00
2023-04-08T21:31:10.762Z,100.00
2023-04-08T21:36:14.090Z,100.00
2023-04-08T21:41:17.292Z,100.00
2023-04-08T21:46:21.830Z,100.00
2023-04-08T21:51:24.853Z,100.00
2023-04-08T21:56:28.055Z,100.00
2023-04-08T22:01:32.849Z,100.00
2023-04-08T22:06:36.325Z,100.00
2023-04-08T22:11:40.827Z,100.00
2023-04-08T22:16:45.533Z,100.00
2023-04-08T22:21:50.356Z,100.00
2023-04-08T22:26:54.217Z,100.00
2023-04-08T22:31:58.783Z,100.00
2023-04-08T22:37:01.808Z,100.00
2023-04-08T22:42:04.895Z,100.00
2023-04-08T22:47:09.689Z,100.00
2023-04-08T22:52:12.907Z,100.00
2023-04-08T22:57:15.995Z,100.00
2023-04-08T23:02:20.651Z,100.00
2023-04-08T23:07:24.313Z,100.00
2023-04-08T23:12:27.164Z,100.00
2023-04-08T23:17:31.530Z,100.00
2023-04-08T23:22:34.514Z,100.00
2023-04-08T23:27:37.639Z,100.00
2023-04-08T23:32:42.053Z,100.00
2023-04-08T23:37:45.039Z,100.00
2023-04-08T23:42:48.503Z,100.00
2023-04-08T23:47:52.972Z,100.00
2023-04-08T23:52:56.130Z,100.00
2023-04-08T23:58:00.078Z,100.00
